sensor_id;sensor_type;location;lat;lon;timestamp;temperature;humidity
69626;DHT22;56847;51.984;5.088;2023-12-29T00:01:31;13.60;70.10
69626;DHT22;56847;51.984;5.088;2023-12-29T00:03:58;13.40;70.80
69626;DHT22;56847;51.984;5.088;2023-12-29T00:06:25;13.10;71.80
69626;DHT22;56847;51.984;5.088;2023-12-29T00:08:52;12.90;73.10
69626;DHT22;56847;51.984;5.088;2023-12-29T00:11:20;12.70;73.80
69626;DHT22;56847;51.984;5.088;2023-12-29T00:13:47;12.60;74.40
69626;DHT22;56847;51.984;5.088;2023-12-29T00:16:17;12.60;74.80
69626;DHT22;56847;51.984;5.088;2023-12-29T00:18:44;12.60;74.80
69626;DHT22;56847;51.984;5.088;2023-12-29T00:21:12;12.60;74.90
69626;DHT22;56847;51.984;5.088;2023-12-29T00:23:39;12.60;74.80
69626;DHT22;56847;51.984;5.088;2023-12-29T00:26:06;12.70;74.80
69626;DHT22;56847;51.984;5.088;2023-12-29T00:28:35;12.80;74.70
69626;DHT22;56847;51.984;5.088;2023-12-29T00:31:03;12.80;74.50
69626;DHT22;56847;51.984;5.088;2023-12-29T00:33:32;12.90;74.70
69626;DHT22;56847;51.984;5.088;2023-12-29T00:35:59;13.00;74.60
69626;DHT22;56847;51.984;5.088;2023-12-29T00:38:27;13.00;74.20
69626;DHT22;56847;51.984;5.088;2023-12-29T00:40:55;13.10;73.90
69626;DHT22;56847;51.984;5.088;2023-12-29T00:43:22;13.10;73.60
69626;DHT22;56847;51.984;5.088;2023-12-29T00:45:49;13.20;73.80
69626;DHT22;56847;51.984;5.088;2023-12-29T00:48:16;13.20;73.70
69626;DHT22;56847;51.984;5.088;2023-12-29T00:50:45;13.30;73.60
69626;DHT22;56847;51.984;5.088;2023-12-29T00:53:12;13.30;73.80
69626;DHT22;56847;51.984;5.088;2023-12-29T00:55:39;13.40;73.30
69626;DHT22;56847;51.984;5.088;2023-12-29T00:58:06;13.40;73.20
69626;DHT22;56847;51.984;5.088;2023-12-29T01:00:33;13.40;73.20
69626;DHT22;56847;51.984;5.088;2023-12-29T01:03:00;13.40;73.00
69626;DHT22;56847;51.984;5.088;2023-12-29T01:05:27;13.40;73.10
69626;DHT22;56847;51.984;5.088;2023-12-29T01:07:55;13.40;73.20
69626;DHT22;56847;51.984;5.088;2023-12-29T01:10:22;13.40;73.10
69626;DHT22;56847;51.984;5.088;2023-12-29T01:12:49;13.40;73.00
69626;DHT22;56847;51.984;5.088;2023-12-29T01:15:16;13.40;72.90
69626;DHT22;56847;51.984;5.088;2023-12-29T01:17:45;13.40;73.00
69626;DHT22;56847;51.984;5.088;2023-12-29T01:20:12;13.40;72.90
69626;DHT22;56847;51.984;5.088;2023-12-29T01:22:39;13.40;73.00
69626;DHT22;56847;51.984;5.088;2023-12-29T01:25:07;13.40;72.90
69626;DHT22;56847;51.984;5.088;2023-12-29T01:27:34;13.40;72.80
69626;DHT22;56847;51.984;5.088;2023-12-29T01:30:01;13.30;72.90
69626;DHT22;56847;51.984;5.088;2023-12-29T01:32:28;13.30;72.60
69626;DHT22;56847;51.984;5.088;2023-12-29T01:56:11;13.20;72.70
69626;DHT22;56847;51.984;5.088;2023-12-29T01:58:41;13.10;73.00
69626;DHT22;56847;51.984;5.088;2023-12-29T02:01:08;13.20;73.00
69626;DHT22;56847;51.984;5.088;2023-12-29T02:03:36;13.10;73.00
69626;DHT22;56847;51.984;5.088;2023-12-29T02:06:06;13.10;73.10
69626;DHT22;56847;51.984;5.088;2023-12-29T02:08:33;13.10;73.10
69626;DHT22;56847;51.984;5.088;2023-12-29T02:11:00;13.10;73.20
69626;DHT22;56847;51.984;5.088;2023-12-29T02:13:27;13.10;73.40
69626;DHT22;56847;51.984;5.088;2023-12-29T02:16:00;13.00;73.70
69626;DHT22;56847;51.984;5.088;2023-12-29T02:18:30;13.00;74.00
69626;DHT22;56847;51.984;5.088;2023-12-29T02:20:57;13.00;74.30
69626;DHT22;56847;51.984;5.088;2023-12-29T02:23:24;12.90;74.50
69626;DHT22;56847;51.984;5.088;2023-12-29T02:25:57;12.90;74.70
69626;DHT22;56847;51.984;5.088;2023-12-29T02:28:26;12.90;74.70
69626;DHT22;56847;51.984;5.088;2023-12-29T02:31:19;12.80;74.90
69626;DHT22;56847;51.984;5.088;2023-12-29T02:33:47;12.70;75.70
69626;DHT22;56847;51.984;5.088;2023-12-29T02:36:19;12.50;76.60
69626;DHT22;56847;51.984;5.088;2023-12-29T02:38:47;12.40;77.50
69626;DHT22;56847;51.984;5.088;2023-12-29T02:41:14;12.20;78.40
69626;DHT22;56847;51.984;5.088;2023-12-29T02:43:41;12.20;79.00
69626;DHT22;56847;51.984;5.088;2023-12-29T02:46:08;12.20;79.60
69626;DHT22;56847;51.984;5.088;2023-12-29T02:48:35;12.10;79.90
69626;DHT22;56847;51.984;5.088;2023-12-29T02:51:02;12.10;80.50
69626;DHT22;56847;51.984;5.088;2023-12-29T02:53:29;12.10;80.80
69626;DHT22;56847;51.984;5.088;2023-12-29T02:55:56;12.00;80.90
69626;DHT22;56847;51.984;5.088;2023-12-29T02:58:23;12.10;81.20
69626;DHT22;56847;51.984;5.088;2023-12-29T03:00:50;12.00;81.30
69626;DHT22;56847;51.984;5.088;2023-12-29T03:03:17;12.00;81.30
69626;DHT22;56847;51.984;5.088;2023-12-29T03:05:45;12.10;81.40
69626;DHT22;56847;51.984;5.088;2023-12-29T03:08:12;12.10;81.40
69626;DHT22;56847;51.984;5.088;2023-12-29T03:10:39;12.20;81.30
69626;DHT22;56847;51.984;5.088;2023-12-29T03:13:06;12.20;81.50
69626;DHT22;56847;51.984;5.088;2023-12-29T03:15:34;12.20;81.30
69626;DHT22;56847;51.984;5.088;2023-12-29T03:18:01;12.20;81.20
69626;DHT22;56847;51.984;5.088;2023-12-29T03:20:28;12.30;81.20
69626;DHT22;56847;51.984;5.088;2023-12-29T03:22:55;12.30;81.00
69626;DHT22;56847;51.984;5.088;2023-12-29T03:25:22;12.30;81.00
69626;DHT22;56847;51.984;5.088;2023-12-29T03:27:49;12.30;80.90
69626;DHT22;56847;51.984;5.088;2023-12-29T03:30:16;12.40;80.90
69626;DHT22;56847;51.984;5.088;2023-12-29T03:32:44;12.40;80.80
69626;DHT22;56847;51.984;5.088;2023-12-29T03:35:11;12.40;80.80
69626;DHT22;56847;51.984;5.088;2023-12-29T03:37:38;12.40;80.80
69626;DHT22;56847;51.984;5.088;2023-12-29T03:40:07;12.40;80.60
69626;DHT22;56847;51.984;5.088;2023-12-29T03:42:34;12.30;80.50
69626;DHT22;56847;51.984;5.088;2023-12-29T03:45:01;12.20;80.90
69626;DHT22;56847;51.984;5.088;2023-12-29T03:47:28;12.00;81.70
69626;DHT22;56847;51.984;5.088;2023-12-29T03:49:57;11.90;82.20
69626;DHT22;56847;51.984;5.088;2023-12-29T03:52:24;11.80;82.60
69626;DHT22;56847;51.984;5.088;2023-12-29T03:54:51;11.80;83.00
69626;DHT22;56847;51.984;5.088;2023-12-29T03:57:18;11.70;83.30
69626;DHT22;56847;51.984;5.088;2023-12-29T03:59:48;11.70;83.40
69626;DHT22;56847;51.984;5.088;2023-12-29T04:02:15;11.70;83.60
69626;DHT22;56847;51.984;5.088;2023-12-29T04:04:44;11.70;83.70
69626;DHT22;56847;51.984;5.088;2023-12-29T04:07:11;11.60;83.90
69626;DHT22;56847;51.984;5.088;2023-12-29T04:09:38;11.60;84.10
69626;DHT22;56847;51.984;5.088;2023-12-29T04:12:05;11.60;84.30
69626;DHT22;56847;51.984;5.088;2023-12-29T04:14:32;11.70;84.40
69626;DHT22;56847;51.984;5.088;2023-12-29T04:16:59;11.70;84.60
69626;DHT22;56847;51.984;5.088;2023-12-29T04:19:29;11.70;84.80
69626;DHT22;56847;51.984;5.088;2023-12-29T04:21:56;11.70;84.70
69626;DHT22;56847;51.984;5.088;2023-12-29T04:24:23;11.70;84.60
69626;DHT22;56847;51.984;5.088;2023-12-29T04:26:50;11.80;84.50
69626;DHT22;56847;51.984;5.088;2023-12-29T04:29:17;11.80;84.30
69626;DHT22;56847;51.984;5.088;2023-12-29T04:31:44;11.80;84.40
69626;DHT22;56847;51.984;5.088;2023-12-29T04:34:14;11.80;84.10
69626;DHT22;56847;51.984;5.088;2023-12-29T04:36:41;11.80;84.00
69626;DHT22;56847;51.984;5.088;2023-12-29T04:39:08;11.80;83.90
69626;DHT22;56847;51.984;5.088;2023-12-29T04:41:37;11.90;83.80
69626;DHT22;56847;51.984;5.088;2023-12-29T04:44:04;11.90;83.50
69626;DHT22;56847;51.984;5.088;2023-12-29T04:46:31;11.90;83.50
69626;DHT22;56847;51.984;5.088;2023-12-29T04:48:58;12.00;83.30
69626;DHT22;56847;51.984;5.088;2023-12-29T04:51:26;12.00;83.10
69626;DHT22;56847;51.984;5.088;2023-12-29T04:53:52;12.00;82.90
69626;DHT22;56847;51.984;5.088;2023-12-29T04:56:19;12.00;82.80
69626;DHT22;56847;51.984;5.088;2023-12-29T04:58:46;12.00;82.80
69626;DHT22;56847;51.984;5.088;2023-12-29T05:01:13;12.00;82.60
69626;DHT22;56847;51.984;5.088;2023-12-29T05:03:40;12.00;82.70
69626;DHT22;56847;51.984;5.088;2023-12-29T05:06:07;12.10;82.40
69626;DHT22;56847;51.984;5.088;2023-12-29T05:08:34;12.10;82.50
69626;DHT22;56847;51.984;5.088;2023-12-29T05:11:01;12.10;82.20
69626;DHT22;56847;51.984;5.088;2023-12-29T05:13:28;12.00;82.10
69626;DHT22;56847;51.984;5.088;2023-12-29T05:15:56;12.10;82.10
69626;DHT22;56847;51.984;5.088;2023-12-29T05:18:23;12.10;82.00
69626;DHT22;56847;51.984;5.088;2023-12-29T05:20:53;12.10;81.90
69626;DHT22;56847;51.984;5.088;2023-12-29T05:23:20;12.10;81.90
69626;DHT22;56847;51.984;5.088;2023-12-29T05:25:47;12.10;81.70
69626;DHT22;56847;51.984;5.088;2023-12-29T05:28:14;12.10;81.80
69626;DHT22;56847;51.984;5.088;2023-12-29T05:30:41;12.10;81.80
69626;DHT22;56847;51.984;5.088;2023-12-29T05:33:08;12.20;81.80
69626;DHT22;56847;51.984;5.088;2023-12-29T05:35:35;12.20;81.50
69626;DHT22;56847;51.984;5.088;2023-12-29T05:38:02;12.20;81.60
69626;DHT22;56847;51.984;5.088;2023-12-29T05:40:29;12.20;81.50
69626;DHT22;56847;51.984;5.088;2023-12-29T05:42:56;12.20;81.60
69626;DHT22;56847;51.984;5.088;2023-12-29T05:45:23;12.20;81.60
69626;DHT22;56847;51.984;5.088;2023-12-29T05:47:49;12.30;81.50
69626;DHT22;56847;51.984;5.088;2023-12-29T05:50:16;12.30;81.40
69626;DHT22;56847;51.984;5.088;2023-12-29T05:52:43;12.30;81.10
69626;DHT22;56847;51.984;5.088;2023-12-29T05:55:10;12.30;80.90
69626;DHT22;56847;51.984;5.088;2023-12-29T05:57:37;12.30;80.90
69626;DHT22;56847;51.984;5.088;2023-12-29T06:00:05;12.20;80.90
69626;DHT22;56847;51.984;5.088;2023-12-29T06:02:37;12.20;80.80
69626;DHT22;56847;51.984;5.088;2023-12-29T06:05:04;12.20;80.70
69626;DHT22;56847;51.984;5.088;2023-12-29T06:07:33;12.30;80.90
69626;DHT22;56847;51.984;5.088;2023-12-29T06:10:01;12.20;80.70
69626;DHT22;56847;51.984;5.088;2023-12-29T06:12:28;12.20;80.50
69626;DHT22;56847;51.984;5.088;2023-12-29T06:14:55;12.20;80.50
69626;DHT22;56847;51.984;5.088;2023-12-29T06:17:22;12.20;80.60
69626;DHT22;56847;51.984;5.088;2023-12-29T06:19:49;12.20;80.40
69626;DHT22;56847;51.984;5.088;2023-12-29T06:22:16;12.20;80.40
69626;DHT22;56847;51.984;5.088;2023-12-29T06:24:43;12.20;80.50
69626;DHT22;56847;51.984;5.088;2023-12-29T06:27:11;12.20;80.60
69626;DHT22;56847;51.984;5.088;2023-12-29T06:29:54;12.20;80.40
69626;DHT22;56847;51.984;5.088;2023-12-29T06:32:21;12.20;80.60
69626;DHT22;56847;51.984;5.088;2023-12-29T06:34:48;12.30;80.40
69626;DHT22;56847;51.984;5.088;2023-12-29T06:37:15;12.30;80.70
69626;DHT22;56847;51.984;5.088;2023-12-29T06:39:42;12.30;80.70
69626;DHT22;56847;51.984;5.088;2023-12-29T06:42:09;12.30;80.60
69626;DHT22;56847;51.984;5.088;2023-12-29T06:44:36;12.30;80.30
69626;DHT22;56847;51.984;5.088;2023-12-29T06:47:03;12.40;80.00
69626;DHT22;56847;51.984;5.088;2023-12-29T06:49:35;12.40;79.90
69626;DHT22;56847;51.984;5.088;2023-12-29T06:52:03;12.40;79.80
69626;DHT22;56847;51.984;5.088;2023-12-29T06:54:36;12.40;79.80
69626;DHT22;56847;51.984;5.088;2023-12-29T06:57:03;12.40;79.90
69626;DHT22;56847;51.984;5.088;2023-12-29T06:59:33;12.40;79.90
69626;DHT22;56847;51.984;5.088;2023-12-29T07:02:00;12.40;80.00
69626;DHT22;56847;51.984;5.088;2023-12-29T07:04:27;12.40;80.20
69626;DHT22;56847;51.984;5.088;2023-12-29T07:06:54;12.40;80.40
69626;DHT22;56847;51.984;5.088;2023-12-29T07:09:21;12.40;80.40
69626;DHT22;56847;51.984;5.088;2023-12-29T07:11:48;12.40;80.40
69626;DHT22;56847;51.984;5.088;2023-12-29T07:14:16;12.40;80.40
69626;DHT22;56847;51.984;5.088;2023-12-29T07:16:44;12.40;80.60
69626;DHT22;56847;51.984;5.088;2023-12-29T07:19:11;12.40;80.50
69626;DHT22;56847;51.984;5.088;2023-12-29T07:21:38;12.30;80.60
69626;DHT22;56847;51.984;5.088;2023-12-29T07:24:05;12.20;81.00
69626;DHT22;56847;51.984;5.088;2023-12-29T07:26:33;12.10;81.50
69626;DHT22;56847;51.984;5.088;2023-12-29T07:29:03;12.00;82.00
69626;DHT22;56847;51.984;5.088;2023-12-29T07:31:31;12.00;82.50
69626;DHT22;56847;51.984;5.088;2023-12-29T07:33:59;11.90;82.70
69626;DHT22;56847;51.984;5.088;2023-12-29T07:36:26;11.90;83.00
69626;DHT22;56847;51.984;5.088;2023-12-29T07:38:53;11.90;83.20
69626;DHT22;56847;51.984;5.088;2023-12-29T07:41:20;11.90;83.30
69626;DHT22;56847;51.984;5.088;2023-12-29T07:43:48;11.90;83.40
69626;DHT22;56847;51.984;5.088;2023-12-29T07:46:24;11.90;83.50
69626;DHT22;56847;51.984;5.088;2023-12-29T07:48:52;11.90;83.50
69626;DHT22;56847;51.984;5.088;2023-12-29T07:51:23;12.00;83.60
69626;DHT22;56847;51.984;5.088;2023-12-29T07:53:49;12.00;83.50
69626;DHT22;56847;51.984;5.088;2023-12-29T07:56:16;12.00;83.50
69626;DHT22;56847;51.984;5.088;2023-12-29T07:58:43;12.00;83.60
69626;DHT22;56847;51.984;5.088;2023-12-29T08:01:13;12.10;83.80
69626;DHT22;56847;51.984;5.088;2023-12-29T08:03:40;12.10;83.60
69626;DHT22;56847;51.984;5.088;2023-12-29T08:06:07;12.10;83.60
69626;DHT22;56847;51.984;5.088;2023-12-29T08:08:34;12.20;83.40
69626;DHT22;56847;51.984;5.088;2023-12-29T08:11:01;12.20;83.50
69626;DHT22;56847;51.984;5.088;2023-12-29T08:13:28;12.20;83.40
69626;DHT22;56847;51.984;5.088;2023-12-29T08:15:55;12.20;83.30
69626;DHT22;56847;51.984;5.088;2023-12-29T08:18:22;12.20;83.20
69626;DHT22;56847;51.984;5.088;2023-12-29T08:20:49;12.30;83.30
69626;DHT22;56847;51.984;5.088;2023-12-29T08:23:16;12.30;83.30
69626;DHT22;56847;51.984;5.088;2023-12-29T08:25:43;12.30;83.20
69626;DHT22;56847;51.984;5.088;2023-12-29T08:28:10;12.40;83.10
69626;DHT22;56847;51.984;5.088;2023-12-29T08:30:37;12.40;82.90
69626;DHT22;56847;51.984;5.088;2023-12-29T08:33:05;12.40;82.80
69626;DHT22;56847;51.984;5.088;2023-12-29T08:35:33;12.40;82.80
69626;DHT22;56847;51.984;5.088;2023-12-29T08:38:00;12.40;82.50
69626;DHT22;56847;51.984;5.088;2023-12-29T08:40:28;12.40;82.50
69626;DHT22;56847;51.984;5.088;2023-12-29T08:42:55;12.40;82.50
69626;DHT22;56847;51.984;5.088;2023-12-29T08:45:22;12.30;82.70
69626;DHT22;56847;51.984;5.088;2023-12-29T08:47:49;12.40;82.60
69626;DHT22;56847;51.984;5.088;2023-12-29T08:50:16;12.40;82.60
69626;DHT22;56847;51.984;5.088;2023-12-29T08:52:43;12.40;82.40
69626;DHT22;56847;51.984;5.088;2023-12-29T08:55:10;12.50;82.20
69626;DHT22;56847;51.984;5.088;2023-12-29T08:57:38;12.50;82.10
69626;DHT22;56847;51.984;5.088;2023-12-29T09:00:05;12.50;82.30
69626;DHT22;56847;51.984;5.088;2023-12-29T09:02:32;12.50;82.10
69626;DHT22;56847;51.984;5.088;2023-12-29T09:05:02;12.60;82.10
69626;DHT22;56847;51.984;5.088;2023-12-29T09:07:29;12.60;82.00
69626;DHT22;56847;51.984;5.088;2023-12-29T09:09:57;12.70;82.00
69626;DHT22;56847;51.984;5.088;2023-12-29T09:12:24;12.70;81.70
69626;DHT22;56847;51.984;5.088;2023-12-29T09:14:51;12.80;81.50
69626;DHT22;56847;51.984;5.088;2023-12-29T09:17:18;12.80;81.10
69626;DHT22;56847;51.984;5.088;2023-12-29T09:19:45;12.80;80.90
69626;DHT22;56847;51.984;5.088;2023-12-29T09:22:19;12.80;81.30
69626;DHT22;56847;51.984;5.088;2023-12-29T09:24:46;12.90;81.00
69626;DHT22;56847;51.984;5.088;2023-12-29T09:27:13;12.90;80.50
69626;DHT22;56847;51.984;5.088;2023-12-29T09:29:41;12.90;80.80
69626;DHT22;56847;51.984;5.088;2023-12-29T09:32:08;13.00;81.00
69626;DHT22;56847;51.984;5.088;2023-12-29T09:34:35;13.00;80.70
69626;DHT22;56847;51.984;5.088;2023-12-29T09:37:03;13.00;80.50
69626;DHT22;56847;51.984;5.088;2023-12-29T09:39:30;13.10;80.70
69626;DHT22;56847;51.984;5.088;2023-12-29T09:41:59;13.10;80.10
69626;DHT22;56847;51.984;5.088;2023-12-29T09:44:31;13.20;80.40
69626;DHT22;56847;51.984;5.088;2023-12-29T09:47:02;13.20;80.20
69626;DHT22;56847;51.984;5.088;2023-12-29T09:49:39;13.20;80.20
69626;DHT22;56847;51.984;5.088;2023-12-29T09:52:09;13.30;80.10
69626;DHT22;56847;51.984;5.088;2023-12-29T09:54:38;13.30;79.60
69626;DHT22;56847;51.984;5.088;2023-12-29T09:57:08;13.30;80.00
69626;DHT22;56847;51.984;5.088;2023-12-29T09:59:36;13.40;79.30
69626;DHT22;56847;51.984;5.088;2023-12-29T10:02:15;13.40;79.00
69626;DHT22;56847;51.984;5.088;2023-12-29T10:04:44;13.40;79.10
69626;DHT22;56847;51.984;5.088;2023-12-29T10:07:18;13.40;79.20
69626;DHT22;56847;51.984;5.088;2023-12-29T10:09:47;13.50;79.40
69626;DHT22;56847;51.984;5.088;2023-12-29T10:12:17;13.50;79.40
69626;DHT22;56847;51.984;5.088;2023-12-29T10:17:41;13.50;79.00
69626;DHT22;56847;51.984;5.088;2023-12-29T10:23:09;13.60;78.40
69626;DHT22;56847;51.984;5.088;2023-12-29T10:25:40;13.60;78.80
69626;DHT22;56847;51.984;5.088;2023-12-29T10:28:09;13.60;78.50
69626;DHT22;56847;51.984;5.088;2023-12-29T10:30:36;13.60;78.70
69626;DHT22;56847;51.984;5.088;2023-12-29T10:33:07;13.60;78.40
69626;DHT22;56847;51.984;5.088;2023-12-29T10:35:38;13.60;78.50
69626;DHT22;56847;51.984;5.088;2023-12-29T10:38:10;13.70;78.70
69626;DHT22;56847;51.984;5.088;2023-12-29T10:40:39;13.70;78.40
69626;DHT22;56847;51.984;5.088;2023-12-29T10:43:09;13.70;78.20
69626;DHT22;56847;51.984;5.088;2023-12-29T10:45:36;13.70;78.20
69626;DHT22;56847;51.984;5.088;2023-12-29T10:48:05;13.70;77.50
69626;DHT22;56847;51.984;5.088;2023-12-29T10:50:43;13.70;77.90
69626;DHT22;56847;51.984;5.088;2023-12-29T10:53:13;13.70;77.20
69626;DHT22;56847;51.984;5.088;2023-12-29T10:55:43;13.70;77.90
69626;DHT22;56847;51.984;5.088;2023-12-29T10:58:11;13.70;78.00
69626;DHT22;56847;51.984;5.088;2023-12-29T11:00:38;13.70;77.90
69626;DHT22;56847;51.984;5.088;2023-12-29T11:03:07;13.70;77.70
69626;DHT22;56847;51.984;5.088;2023-12-29T11:05:34;13.70;77.60
69626;DHT22;56847;51.984;5.088;2023-12-29T11:08:01;13.70;77.60
69626;DHT22;56847;51.984;5.088;2023-12-29T11:10:28;13.70;77.90
69626;DHT22;56847;51.984;5.088;2023-12-29T11:12:57;13.70;77.30
69626;DHT22;56847;51.984;5.088;2023-12-29T11:15:25;13.70;77.60
69626;DHT22;56847;51.984;5.088;2023-12-29T11:17:53;13.80;77.30
69626;DHT22;56847;51.984;5.088;2023-12-29T11:20:23;13.80;77.10
69626;DHT22;56847;51.984;5.088;2023-12-29T11:22:53;13.80;76.90
69626;DHT22;56847;51.984;5.088;2023-12-29T11:25:21;13.80;77.30
69626;DHT22;56847;51.984;5.088;2023-12-29T11:27:49;13.90;77.10
69626;DHT22;56847;51.984;5.088;2023-12-29T11:30:16;13.90;76.80
69626;DHT22;56847;51.984;5.088;2023-12-29T11:32:55;13.90;76.80
69626;DHT22;56847;51.984;5.088;2023-12-29T11:38:23;14.00;76.20
69626;DHT22;56847;51.984;5.088;2023-12-29T11:43:27;14.00;76.60
69626;DHT22;56847;51.984;5.088;2023-12-29T11:45:54;14.00;76.50
69626;DHT22;56847;51.984;5.088;2023-12-29T11:48:56;14.00;76.50
69626;DHT22;56847;51.984;5.088;2023-12-29T11:51:33;14.10;76.00
69626;DHT22;56847;51.984;5.088;2023-12-29T11:54:04;14.00;76.60
69626;DHT22;56847;51.984;5.088;2023-12-29T11:56:34;14.10;76.10
69626;DHT22;56847;51.984;5.088;2023-12-29T11:59:16;14.10;76.30
69626;DHT22;56847;51.984;5.088;2023-12-29T12:01:55;14.10;76.30
69626;DHT22;56847;51.984;5.088;2023-12-29T12:04:40;14.10;76.40
69626;DHT22;56847;51.984;5.088;2023-12-29T12:07:17;14.20;76.30
69626;DHT22;56847;51.984;5.088;2023-12-29T12:12:56;14.20;75.90
69626;DHT22;56847;51.984;5.088;2023-12-29T12:17:56;14.20;75.60
69626;DHT22;56847;51.984;5.088;2023-12-29T12:20:24;14.20;76.00
69626;DHT22;56847;51.984;5.088;2023-12-29T12:23:00;14.20;75.60
69626;DHT22;56847;51.984;5.088;2023-12-29T12:25:31;14.20;75.80
69626;DHT22;56847;51.984;5.088;2023-12-29T12:28:07;14.20;75.70
69626;DHT22;56847;51.984;5.088;2023-12-29T12:30:35;14.30;75.00
69626;DHT22;56847;51.984;5.088;2023-12-29T12:33:03;14.20;75.40
69626;DHT22;56847;51.984;5.088;2023-12-29T12:35:32;14.20;75.10
69626;DHT22;56847;51.984;5.088;2023-12-29T12:38:16;14.20;75.10
69626;DHT22;56847;51.984;5.088;2023-12-29T12:40:49;14.20;75.00
69626;DHT22;56847;51.984;5.088;2023-12-29T12:43:16;14.20;74.80
69626;DHT22;56847;51.984;5.088;2023-12-29T12:45:48;14.10;74.80
69626;DHT22;56847;51.984;5.088;2023-12-29T12:48:27;14.10;75.10
69626;DHT22;56847;51.984;5.088;2023-12-29T12:50:55;14.10;75.20
69626;DHT22;56847;51.984;5.088;2023-12-29T12:53:23;14.10;75.00
69626;DHT22;56847;51.984;5.088;2023-12-29T12:55:52;14.10;75.20
69626;DHT22;56847;51.984;5.088;2023-12-29T12:58:19;14.20;75.10
69626;DHT22;56847;51.984;5.088;2023-12-29T13:00:50;14.20;74.80
69626;DHT22;56847;51.984;5.088;2023-12-29T13:03:21;14.20;74.90
69626;DHT22;56847;51.984;5.088;2023-12-29T13:05:51;14.20;74.80
69626;DHT22;56847;51.984;5.088;2023-12-29T13:08:19;14.20;74.60
69626;DHT22;56847;51.984;5.088;2023-12-29T13:11:00;14.20;74.80
69626;DHT22;56847;51.984;5.088;2023-12-29T13:13:41;14.20;74.80
69626;DHT22;56847;51.984;5.088;2023-12-29T13:16:09;14.20;74.70
69626;DHT22;56847;51.984;5.088;2023-12-29T13:18:36;14.10;74.90
69626;DHT22;56847;51.984;5.088;2023-12-29T13:21:03;14.10;74.90
69626;DHT22;56847;51.984;5.088;2023-12-29T13:23:31;14.10;74.90
69626;DHT22;56847;51.984;5.088;2023-12-29T13:26:04;14.10;74.70
69626;DHT22;56847;51.984;5.088;2023-12-29T13:28:33;14.10;75.00
69626;DHT22;56847;51.984;5.088;2023-12-29T13:31:03;14.10;74.80
69626;DHT22;56847;51.984;5.088;2023-12-29T13:33:52;14.10;74.90
69626;DHT22;56847;51.984;5.088;2023-12-29T13:39:27;14.20;75.10
69626;DHT22;56847;51.984;5.088;2023-12-29T13:42:00;14.20;74.80
69626;DHT22;56847;51.984;5.088;2023-12-29T13:44:28;14.10;74.80
69626;DHT22;56847;51.984;5.088;2023-12-29T13:46:56;14.10;74.70
69626;DHT22;56847;51.984;5.088;2023-12-29T13:49:24;14.00;74.60
69626;DHT22;56847;51.984;5.088;2023-12-29T13:51:51;13.90;74.80
69626;DHT22;56847;51.984;5.088;2023-12-29T13:54:19;13.90;74.90
69626;DHT22;56847;51.984;5.088;2023-12-29T13:56:53;13.90;74.80
69626;DHT22;56847;51.984;5.088;2023-12-29T13:59:30;13.90;74.90
69626;DHT22;56847;51.984;5.088;2023-12-29T14:02:15;13.90;75.00
69626;DHT22;56847;51.984;5.088;2023-12-29T14:04:46;13.80;74.90
69626;DHT22;56847;51.984;5.088;2023-12-29T14:07:19;13.80;74.90
69626;DHT22;56847;51.984;5.088;2023-12-29T14:09:54;13.70;75.10
69626;DHT22;56847;51.984;5.088;2023-12-29T14:12:25;13.60;75.30
69626;DHT22;56847;51.984;5.088;2023-12-29T14:14:54;13.50;75.50
69626;DHT22;56847;51.984;5.088;2023-12-29T14:17:22;13.40;75.80
69626;DHT22;56847;51.984;5.088;2023-12-29T14:19:49;13.40;76.10
69626;DHT22;56847;51.984;5.088;2023-12-29T14:22:22;13.40;76.40
69626;DHT22;56847;51.984;5.088;2023-12-29T14:25:04;13.40;76.60
69626;DHT22;56847;51.984;5.088;2023-12-29T14:27:31;13.40;76.70
69626;DHT22;56847;51.984;5.088;2023-12-29T14:29:58;13.40;76.80
69626;DHT22;56847;51.984;5.088;2023-12-29T14:32:26;13.40;76.80
69626;DHT22;56847;51.984;5.088;2023-12-29T14:34:55;13.40;76.90
69626;DHT22;56847;51.984;5.088;2023-12-29T14:37:22;13.40;76.80
69626;DHT22;56847;51.984;5.088;2023-12-29T14:39:50;13.40;76.90
69626;DHT22;56847;51.984;5.088;2023-12-29T14:42:17;13.20;77.30
69626;DHT22;56847;51.984;5.088;2023-12-29T14:44:47;13.10;78.00
69626;DHT22;56847;51.984;5.088;2023-12-29T14:47:16;12.90;78.80
69626;DHT22;56847;51.984;5.088;2023-12-29T14:49:43;12.80;79.30
69626;DHT22;56847;51.984;5.088;2023-12-29T14:52:12;12.70;79.90
69626;DHT22;56847;51.984;5.088;2023-12-29T14:54:39;12.50;80.30
69626;DHT22;56847;51.984;5.088;2023-12-29T14:57:10;12.40;80.70
69626;DHT22;56847;51.984;5.088;2023-12-29T14:59:44;12.30;80.80
69626;DHT22;56847;51.984;5.088;2023-12-29T15:02:11;12.20;80.80
69626;DHT22;56847;51.984;5.088;2023-12-29T15:04:38;12.00;80.70
69626;DHT22;56847;51.984;5.088;2023-12-29T15:07:05;11.90;80.80
69626;DHT22;56847;51.984;5.088;2023-12-29T15:09:32;11.80;80.80
69626;DHT22;56847;51.984;5.088;2023-12-29T15:12:02;11.80;81.00
69626;DHT22;56847;51.984;5.088;2023-12-29T15:14:31;11.80;81.10
69626;DHT22;56847;51.984;5.088;2023-12-29T15:16:58;11.80;81.50
69626;DHT22;56847;51.984;5.088;2023-12-29T15:19:25;11.80;81.70
69626;DHT22;56847;51.984;5.088;2023-12-29T15:21:53;11.80;81.90
69626;DHT22;56847;51.984;5.088;2023-12-29T15:24:20;11.80;82.20
69626;DHT22;56847;51.984;5.088;2023-12-29T15:26:47;11.90;82.40
69626;DHT22;56847;51.984;5.088;2023-12-29T15:29:15;12.00;82.60
69626;DHT22;56847;51.984;5.088;2023-12-29T15:31:45;12.00;82.80
69626;DHT22;56847;51.984;5.088;2023-12-29T15:34:13;12.10;82.90
69626;DHT22;56847;51.984;5.088;2023-12-29T15:36:40;12.10;83.00
69626;DHT22;56847;51.984;5.088;2023-12-29T15:39:07;12.20;83.20
69626;DHT22;56847;51.984;5.088;2023-12-29T15:41:35;12.30;83.30
69626;DHT22;56847;51.984;5.088;2023-12-29T15:44:02;12.30;83.50
69626;DHT22;56847;51.984;5.088;2023-12-29T15:46:30;12.40;83.50
69626;DHT22;56847;51.984;5.088;2023-12-29T15:48:57;12.50;83.50
69626;DHT22;56847;51.984;5.088;2023-12-29T15:51:28;12.50;83.50
69626;DHT22;56847;51.984;5.088;2023-12-29T15:53:56;12.50;83.40
69626;DHT22;56847;51.984;5.088;2023-12-29T15:56:23;12.60;83.40
69626;DHT22;56847;51.984;5.088;2023-12-29T15:58:53;12.60;83.30
69626;DHT22;56847;51.984;5.088;2023-12-29T16:01:24;12.60;83.20
69626;DHT22;56847;51.984;5.088;2023-12-29T16:03:53;12.60;82.90
69626;DHT22;56847;51.984;5.088;2023-12-29T16:06:25;12.60;82.90
69626;DHT22;56847;51.984;5.088;2023-12-29T16:08:53;12.60;83.00
69626;DHT22;56847;51.984;5.088;2023-12-29T16:11:26;12.60;83.00
69626;DHT22;56847;51.984;5.088;2023-12-29T16:13:54;12.50;83.10
69626;DHT22;56847;51.984;5.088;2023-12-29T16:16:21;12.50;83.10
69626;DHT22;56847;51.984;5.088;2023-12-29T16:18:54;12.50;83.30
69626;DHT22;56847;51.984;5.088;2023-12-29T16:21:21;12.50;83.20